sensor_id;sensor_type;location;lat;lon;timestamp;P1;durP1;ratioP1;P2;durP2;ratioP2
79076;SDS011;68477;42.698;23.342;2023-08-06T00:02:17;8.80;;;3.75;;
79076;SDS011;68477;42.698;23.342;2023-08-06T00:04:42;5.20;;;3.28;;
79076;SDS011;68477;42.698;23.342;2023-08-06T00:07:08;8.55;;;3.50;;
79076;SDS011;68477;42.698;23.342;2023-08-06T00:09:33;7.43;;;4.10;;
79076;SDS011;68477;42.698;23.342;2023-08-06T00:11:59;8.95;;;4.85;;
79076;SDS011;68477;42.698;23.342;2023-08-06T00:14:24;11.50;;;5.03;;
79076;SDS011;68477;42.698;23.342;2023-08-06T00:16:49;9.30;;;4.97;;
79076;SDS011;68477;42.698;23.342;2023-08-06T00:19:15;13.60;;;4.50;;
79076;SDS011;68477;42.698;23.342;2023-08-06T00:21:40;8.60;;;4.38;;
79076;SDS011;68477;42.698;23.342;2023-08-06T00:24:06;9.00;;;4.53;;
79076;SDS011;68477;42.698;23.342;2023-08-06T00:26:31;8.18;;;4.03;;
79076;SDS011;68477;42.698;23.342;2023-08-06T00:28:57;8.88;;;4.00;;
79076;SDS011;68477;42.698;23.342;2023-08-06T00:31:22;6.30;;;3.72;;
79076;SDS011;68477;42.698;23.342;2023-08-06T00:33:48;7.55;;;3.88;;
79076;SDS011;68477;42.698;23.342;2023-08-06T00:36:13;6.82;;;4.78;;
79076;SDS011;68477;42.698;23.342;2023-08-06T00:38:38;7.65;;;4.35;;
79076;SDS011;68477;42.698;23.342;2023-08-06T00:41:04;9.48;;;5.30;;
79076;SDS011;68477;42.698;23.342;2023-08-06T00:43:29;10.18;;;5.32;;
79076;SDS011;68477;42.698;23.342;2023-08-06T00:45:55;11.27;;;6.10;;
79076;SDS011;68477;42.698;23.342;2023-08-06T00:48:21;10.27;;;7.40;;
79076;SDS011;68477;42.698;23.342;2023-08-06T00:50:46;12.70;;;6.95;;
79076;SDS011;68477;42.698;23.342;2023-08-06T00:53:12;16.10;;;6.47;;
79076;SDS011;68477;42.698;23.342;2023-08-06T00:55:38;8.57;;;6.10;;
79076;SDS011;68477;42.698;23.342;2023-08-06T00:58:03;8.05;;;5.38;;
79076;SDS011;68477;42.698;23.342;2023-08-06T01:00:30;8.98;;;6.53;;
79076;SDS011;68477;42.698;23.342;2023-08-06T01:02:55;12.00;;;7.68;;
79076;SDS011;68477;42.698;23.342;2023-08-06T01:05:21;8.77;;;6.15;;
79076;SDS011;68477;42.698;23.342;2023-08-06T01:16:11;10.85;;;7.45;;
79076;SDS011;68477;42.698;23.342;2023-08-06T01:18:37;8.52;;;5.85;;
79076;SDS011;68477;42.698;23.342;2023-08-06T01:21:05;8.60;;;6.40;;
79076;SDS011;68477;42.698;23.342;2023-08-06T01:23:31;7.10;;;5.15;;
79076;SDS011;68477;42.698;23.342;2023-08-06T01:26:01;7.72;;;4.68;;
79076;SDS011;68477;42.698;23.342;2023-08-06T01:34:01;8.20;;;4.25;;
79076;SDS011;68477;42.698;23.342;2023-08-06T01:36:30;8.20;;;4.07;;
79076;SDS011;68477;42.698;23.342;2023-08-06T01:38:55;6.40;;;4.75;;
79076;SDS011;68477;42.698;23.342;2023-08-06T01:41:22;9.23;;;4.57;;
79076;SDS011;68477;42.698;23.342;2023-08-06T01:43:47;7.25;;;4.95;;
79076;SDS011;68477;42.698;23.342;2023-08-06T01:46:13;5.75;;;4.05;;
79076;SDS011;68477;42.698;23.342;2023-08-06T01:48:38;5.75;;;3.83;;
79076;SDS011;68477;42.698;23.342;2023-08-06T01:51:04;6.30;;;4.75;;
79076;SDS011;68477;42.698;23.342;2023-08-06T01:53:30;6.80;;;4.75;;
79076;SDS011;68477;42.698;23.342;2023-08-06T01:55:56;6.50;;;4.50;;
79076;SDS011;68477;42.698;23.342;2023-08-06T01:58:22;8.43;;;4.45;;
79076;SDS011;68477;42.698;23.342;2023-08-06T02:00:47;7.28;;;4.65;;
79076;SDS011;68477;42.698;23.342;2023-08-06T02:03:13;6.72;;;4.50;;
79076;SDS011;68477;42.698;23.342;2023-08-06T02:05:38;6.00;;;4.13;;
79076;SDS011;68477;42.698;23.342;2023-08-06T02:08:05;8.15;;;4.30;;
79076;SDS011;68477;42.698;23.342;2023-08-06T02:10:30;6.55;;;4.30;;
79076;SDS011;68477;42.698;23.342;2023-08-06T02:12:56;5.93;;;4.00;;
79076;SDS011;68477;42.698;23.342;2023-08-06T02:15:21;7.65;;;4.20;;
79076;SDS011;68477;42.698;23.342;2023-08-06T02:17:47;7.28;;;3.90;;
79076;SDS011;68477;42.698;23.342;2023-08-06T02:20:13;4.70;;;3.78;;
79076;SDS011;68477;42.698;23.342;2023-08-06T02:22:38;6.57;;;4.13;;
79076;SDS011;68477;42.698;23.342;2023-08-06T02:25:04;6.03;;;3.95;;
79076;SDS011;68477;42.698;23.342;2023-08-06T02:27:30;6.65;;;3.58;;
79076;SDS011;68477;42.698;23.342;2023-08-06T02:29:55;5.38;;;3.58;;
79076;SDS011;68477;42.698;23.342;2023-08-06T02:32:21;8.77;;;4.82;;
79076;SDS011;68477;42.698;23.342;2023-08-06T02:34:46;13.40;;;5.32;;
79076;SDS011;68477;42.698;23.342;2023-08-06T02:37:12;18.35;;;5.68;;
79076;SDS011;68477;42.698;23.342;2023-08-06T02:39:37;11.82;;;5.43;;
79076;SDS011;68477;42.698;23.342;2023-08-06T02:42:05;12.68;;;5.68;;
79076;SDS011;68477;42.698;23.342;2023-08-06T02:44:32;13.25;;;6.60;;
79076;SDS011;68477;42.698;23.342;2023-08-06T02:46:58;10.50;;;5.05;;
79076;SDS011;68477;42.698;23.342;2023-08-06T02:49:24;6.43;;;4.47;;
79076;SDS011;68477;42.698;23.342;2023-08-06T02:51:50;8.85;;;4.03;;
79076;SDS011;68477;42.698;23.342;2023-08-06T02:54:15;7.40;;;4.00;;
79076;SDS011;68477;42.698;23.342;2023-08-06T02:56:44;9.25;;;5.25;;
79076;SDS011;68477;42.698;23.342;2023-08-06T02:59:10;8.95;;;5.68;;
79076;SDS011;68477;42.698;23.342;2023-08-06T03:01:36;9.70;;;6.43;;
79076;SDS011;68477;42.698;23.342;2023-08-06T03:04:01;9.05;;;5.50;;
79076;SDS011;68477;42.698;23.342;2023-08-06T03:06:27;10.13;;;4.78;;
79076;SDS011;68477;42.698;23.342;2023-08-06T03:08:52;8.10;;;4.68;;
79076;SDS011;68477;42.698;23.342;2023-08-06T03:11:18;9.15;;;5.53;;
79076;SDS011;68477;42.698;23.342;2023-08-06T03:13:43;7.50;;;4.72;;
79076;SDS011;68477;42.698;23.342;2023-08-06T03:16:09;8.70;;;4.70;;
79076;SDS011;68477;42.698;23.342;2023-08-06T03:18:34;11.77;;;6.10;;
79076;SDS011;68477;42.698;23.342;2023-08-06T03:21:00;8.32;;;5.38;;
79076;SDS011;68477;42.698;23.342;2023-08-06T03:23:25;6.57;;;4.43;;
79076;SDS011;68477;42.698;23.342;2023-08-06T03:25:51;8.52;;;4.90;;
79076;SDS011;68477;42.698;23.342;2023-08-06T03:28:16;7.78;;;4.90;;
79076;SDS011;68477;42.698;23.342;2023-08-06T03:30:42;9.27;;;6.00;;
79076;SDS011;68477;42.698;23.342;2023-08-06T03:33:07;12.10;;;6.22;;
79076;SDS011;68477;42.698;23.342;2023-08-06T03:35:33;10.27;;;6.60;;
79076;SDS011;68477;42.698;23.342;2023-08-06T03:37:58;11.27;;;5.72;;
79076;SDS011;68477;42.698;23.342;2023-08-06T03:40:23;8.68;;;5.10;;
79076;SDS011;68477;42.698;23.342;2023-08-06T03:42:49;11.30;;;5.95;;
79076;SDS011;68477;42.698;23.342;2023-08-06T03:45:14;5.30;;;3.85;;
79076;SDS011;68477;42.698;23.342;2023-08-06T03:47:40;8.18;;;5.15;;
79076;SDS011;68477;42.698;23.342;2023-08-06T03:50:06;6.70;;;5.13;;
79076;SDS011;68477;42.698;23.342;2023-08-06T03:52:31;7.57;;;5.00;;
79076;SDS011;68477;42.698;23.342;2023-08-06T03:54:57;8.52;;;5.18;;
79076;SDS011;68477;42.698;23.342;2023-08-06T03:57:22;8.50;;;4.82;;
79076;SDS011;68477;42.698;23.342;2023-08-06T03:59:48;7.47;;;4.90;;
79076;SDS011;68477;42.698;23.342;2023-08-06T04:02:13;9.13;;;5.10;;
79076;SDS011;68477;42.698;23.342;2023-08-06T04:04:38;5.30;;;3.65;;
79076;SDS011;68477;42.698;23.342;2023-08-06T04:07:04;8.40;;;4.10;;
79076;SDS011;68477;42.698;23.342;2023-08-06T04:09:30;7.72;;;4.50;;
79076;SDS011;68477;42.698;23.342;2023-08-06T04:11:55;8.10;;;4.40;;
79076;SDS011;68477;42.698;23.342;2023-08-06T04:14:21;9.13;;;4.68;;
79076;SDS011;68477;42.698;23.342;2023-08-06T04:16:47;7.20;;;4.30;;
79076;SDS011;68477;42.698;23.342;2023-08-06T04:19:12;7.45;;;4.43;;
79076;SDS011;68477;42.698;23.342;2023-08-06T04:21:37;8.32;;;5.18;;
79076;SDS011;68477;42.698;23.342;2023-08-06T04:24:03;9.05;;;4.53;;
79076;SDS011;68477;42.698;23.342;2023-08-06T04:26:28;7.32;;;4.55;;
79076;SDS011;68477;42.698;23.342;2023-08-06T04:28:54;7.90;;;4.00;;
79076;SDS011;68477;42.698;23.342;2023-08-06T04:31:19;6.57;;;4.38;;
79076;SDS011;68477;42.698;23.342;2023-08-06T04:33:45;6.07;;;4.35;;
79076;SDS011;68477;42.698;23.342;2023-08-06T04:36:11;8.57;;;5.13;;
79076;SDS011;68477;42.698;23.342;2023-08-06T04:38:36;6.57;;;4.15;;
79076;SDS011;68477;42.698;23.342;2023-08-06T04:41:03;5.85;;;4.03;;
79076;SDS011;68477;42.698;23.342;2023-08-06T04:43:29;5.90;;;3.72;;
79076;SDS011;68477;42.698;23.342;2023-08-06T04:45:54;8.65;;;4.63;;
79076;SDS011;68477;42.698;23.342;2023-08-06T04:48:21;5.65;;;4.25;;
79076;SDS011;68477;42.698;23.342;2023-08-06T04:50:47;6.57;;;4.35;;
79076;SDS011;68477;42.698;23.342;2023-08-06T04:53:14;8.35;;;4.82;;
79076;SDS011;68477;42.698;23.342;2023-08-06T04:55:40;8.18;;;4.88;;
79076;SDS011;68477;42.698;23.342;2023-08-06T04:58:06;6.82;;;5.00;;
79076;SDS011;68477;42.698;23.342;2023-08-06T05:00:31;8.43;;;5.28;;
79076;SDS011;68477;42.698;23.342;2023-08-06T05:02:57;7.43;;;5.30;;
79076;SDS011;68477;42.698;23.342;2023-08-06T05:05:24;7.25;;;4.50;;
79076;SDS011;68477;42.698;23.342;2023-08-06T05:07:50;7.95;;;4.85;;
79076;SDS011;68477;42.698;23.342;2023-08-06T05:10:15;6.68;;;4.20;;
79076;SDS011;68477;42.698;23.342;2023-08-06T05:12:41;7.00;;;5.20;;
79076;SDS011;68477;42.698;23.342;2023-08-06T05:15:07;5.65;;;3.55;;
79076;SDS011;68477;42.698;23.342;2023-08-06T05:17:33;4.88;;;4.05;;
79076;SDS011;68477;42.698;23.342;2023-08-06T05:19:59;5.60;;;3.92;;
79076;SDS011;68477;42.698;23.342;2023-08-06T05:22:24;5.72;;;3.60;;
79076;SDS011;68477;42.698;23.342;2023-08-06T05:24:50;6.45;;;4.32;;
79076;SDS011;68477;42.698;23.342;2023-08-06T05:27:15;6.95;;;4.18;;
79076;SDS011;68477;42.698;23.342;2023-08-06T05:29:43;6.75;;;4.05;;
79076;SDS011;68477;42.698;23.342;2023-08-06T05:32:09;6.32;;;4.35;;
79076;SDS011;68477;42.698;23.342;2023-08-06T05:34:35;5.80;;;4.13;;
79076;SDS011;68477;42.698;23.342;2023-08-06T05:37:00;6.90;;;4.15;;
79076;SDS011;68477;42.698;23.342;2023-08-06T05:39:26;7.97;;;5.28;;
79076;SDS011;68477;42.698;23.342;2023-08-06T05:41:51;7.30;;;5.15;;
79076;SDS011;68477;42.698;23.342;2023-08-06T05:44:17;5.35;;;4.20;;
79076;SDS011;68477;42.698;23.342;2023-08-06T05:46:43;6.82;;;4.40;;
79076;SDS011;68477;42.698;23.342;2023-08-06T05:49:08;5.97;;;4.32;;
79076;SDS011;68477;42.698;23.342;2023-08-06T05:51:33;6.35;;;4.50;;
79076;SDS011;68477;42.698;23.342;2023-08-06T05:53:59;5.28;;;3.88;;
79076;SDS011;68477;42.698;23.342;2023-08-06T05:56:24;8.18;;;4.47;;
79076;SDS011;68477;42.698;23.342;2023-08-06T05:58:50;6.30;;;4.38;;
79076;SDS011;68477;42.698;23.342;2023-08-06T06:01:18;4.75;;;3.53;;
79076;SDS011;68477;42.698;23.342;2023-08-06T06:03:43;8.48;;;4.07;;
79076;SDS011;68477;42.698;23.342;2023-08-06T06:06:09;5.63;;;3.53;;
79076;SDS011;68477;42.698;23.342;2023-08-06T06:08:34;5.95;;;4.20;;
79076;SDS011;68477;42.698;23.342;2023-08-06T06:10:59;5.38;;;3.30;;
79076;SDS011;68477;42.698;23.342;2023-08-06T06:13:25;5.88;;;2.78;;
79076;SDS011;68477;42.698;23.342;2023-08-06T06:15:53;6.13;;;2.78;;
79076;SDS011;68477;42.698;23.342;2023-08-06T06:18:20;3.70;;;2.85;;
79076;SDS011;68477;42.698;23.342;2023-08-06T06:20:45;4.05;;;2.60;;
79076;SDS011;68477;42.698;23.342;2023-08-06T06:23:10;6.85;;;3.15;;
79076;SDS011;68477;42.698;23.342;2023-08-06T06:25:36;5.93;;;2.90;;
79076;SDS011;68477;42.698;23.342;2023-08-06T06:28:01;4.72;;;2.53;;
79076;SDS011;68477;42.698;23.342;2023-08-06T06:30:27;6.97;;;3.03;;
79076;SDS011;68477;42.698;23.342;2023-08-06T06:32:52;4.40;;;2.60;;
79076;SDS011;68477;42.698;23.342;2023-08-06T06:35:18;4.20;;;2.72;;
79076;SDS011;68477;42.698;23.342;2023-08-06T06:37:43;3.75;;;2.67;;
79076;SDS011;68477;42.698;23.342;2023-08-06T06:40:09;3.55;;;2.50;;
79076;SDS011;68477;42.698;23.342;2023-08-06T06:42:34;10.43;;;4.30;;
79076;SDS011;68477;42.698;23.342;2023-08-06T06:45:01;4.80;;;2.47;;
79076;SDS011;68477;42.698;23.342;2023-08-06T06:47:27;4.72;;;2.15;;
79076;SDS011;68477;42.698;23.342;2023-08-06T06:49:53;6.35;;;2.40;;
79076;SDS011;68477;42.698;23.342;2023-08-06T06:52:18;4.13;;;2.35;;
79076;SDS011;68477;42.698;23.342;2023-08-06T06:54:44;5.57;;;2.83;;
79076;SDS011;68477;42.698;23.342;2023-08-06T06:57:09;6.05;;;2.67;;
79076;SDS011;68477;42.698;23.342;2023-08-06T06:59:35;4.60;;;2.85;;
79076;SDS011;68477;42.698;23.342;2023-08-06T07:02:00;5.32;;;2.63;;
79076;SDS011;68477;42.698;23.342;2023-08-06T07:04:25;4.88;;;2.75;;
79076;SDS011;68477;42.698;23.342;2023-08-06T07:06:51;3.60;;;2.60;;
79076;SDS011;68477;42.698;23.342;2023-08-06T07:09:17;3.95;;;2.70;;
79076;SDS011;68477;42.698;23.342;2023-08-06T07:11:42;4.80;;;2.88;;
79076;SDS011;68477;42.698;23.342;2023-08-06T07:14:09;3.78;;;2.70;;
79076;SDS011;68477;42.698;23.342;2023-08-06T07:16:34;4.78;;;3.15;;
79076;SDS011;68477;42.698;23.342;2023-08-06T07:19:00;5.60;;;2.95;;
79076;SDS011;68477;42.698;23.342;2023-08-06T07:21:25;6.50;;;3.15;;
79076;SDS011;68477;42.698;23.342;2023-08-06T07:23:51;4.90;;;3.00;;
79076;SDS011;68477;42.698;23.342;2023-08-06T07:26:16;4.43;;;3.10;;
79076;SDS011;68477;42.698;23.342;2023-08-06T07:28:42;7.45;;;2.90;;
79076;SDS011;68477;42.698;23.342;2023-08-06T07:31:09;4.55;;;2.80;;
79076;SDS011;68477;42.698;23.342;2023-08-06T07:33:34;5.95;;;3.05;;
79076;SDS011;68477;42.698;23.342;2023-08-06T07:36:00;7.57;;;2.83;;
79076;SDS011;68477;42.698;23.342;2023-08-06T07:38:32;5.47;;;3.10;;
79076;SDS011;68477;42.698;23.342;2023-08-06T07:40:57;5.25;;;3.72;;
79076;SDS011;68477;42.698;23.342;2023-08-06T07:43:26;3.80;;;2.55;;
79076;SDS011;68477;42.698;23.342;2023-08-06T07:45:51;8.48;;;3.42;;
79076;SDS011;68477;42.698;23.342;2023-08-06T07:48:17;5.97;;;2.78;;
79076;SDS011;68477;42.698;23.342;2023-08-06T07:50:42;11.68;;;3.28;;
79076;SDS011;68477;42.698;23.342;2023-08-06T07:53:13;6.50;;;2.63;;
79076;SDS011;68477;42.698;23.342;2023-08-06T07:55:39;5.50;;;2.55;;
79076;SDS011;68477;42.698;23.342;2023-08-06T07:58:04;4.47;;;3.10;;
79076;SDS011;68477;42.698;23.342;2023-08-06T08:00:31;4.90;;;3.20;;
79076;SDS011;68477;42.698;23.342;2023-08-06T08:02:56;7.10;;;2.60;;
79076;SDS011;68477;42.698;23.342;2023-08-06T08:05:22;5.20;;;2.80;;
79076;SDS011;68477;42.698;23.342;2023-08-06T08:07:47;5.63;;;3.03;;
79076;SDS011;68477;42.698;23.342;2023-08-06T08:10:13;4.10;;;2.50;;
79076;SDS011;68477;42.698;23.342;2023-08-06T08:12:38;5.78;;;3.53;;
79076;SDS011;68477;42.698;23.342;2023-08-06T08:15:04;4.47;;;2.92;;
79076;SDS011;68477;42.698;23.342;2023-08-06T08:17:29;3.50;;;2.83;;
79076;SDS011;68477;42.698;23.342;2023-08-06T08:19:55;9.73;;;2.78;;
79076;SDS011;68477;42.698;23.342;2023-08-06T08:22:20;7.03;;;2.63;;
79076;SDS011;68477;42.698;23.342;2023-08-06T08:24:46;4.40;;;2.72;;
79076;SDS011;68477;42.698;23.342;2023-08-06T08:27:11;3.88;;;2.70;;
79076;SDS011;68477;42.698;23.342;2023-08-06T08:29:36;4.70;;;3.15;;
79076;SDS011;68477;42.698;23.342;2023-08-06T08:32:02;4.15;;;2.83;;
79076;SDS011;68477;42.698;23.342;2023-08-06T08:34:27;3.88;;;2.97;;
79076;SDS011;68477;42.698;23.342;2023-08-06T08:36:53;4.45;;;2.60;;
79076;SDS011;68477;42.698;23.342;2023-08-06T08:39:18;4.13;;;2.80;;
79076;SDS011;68477;42.698;23.342;2023-08-06T08:41:44;4.05;;;3.05;;
79076;SDS011;68477;42.698;23.342;2023-08-06T08:44:10;4.45;;;2.88;;
79076;SDS011;68477;42.698;23.342;2023-08-06T08:46:36;6.05;;;3.25;;
79076;SDS011;68477;42.698;23.342;2023-08-06T08:49:05;7.57;;;3.35;;
79076;SDS011;68477;42.698;23.342;2023-08-06T08:51:31;4.53;;;2.72;;
79076;SDS011;68477;42.698;23.342;2023-08-06T08:53:58;4.13;;;3.00;;
79076;SDS011;68477;42.698;23.342;2023-08-06T08:56:23;4.82;;;2.92;;
79076;SDS011;68477;42.698;23.342;2023-08-06T08:58:50;5.03;;;2.83;;
79076;SDS011;68477;42.698;23.342;2023-08-06T09:01:18;5.25;;;2.88;;
79076;SDS011;68477;42.698;23.342;2023-08-06T09:03:45;4.10;;;2.75;;
79076;SDS011;68477;42.698;23.342;2023-08-06T09:06:12;4.28;;;2.92;;
79076;SDS011;68477;42.698;23.342;2023-08-06T09:08:43;4.07;;;2.70;;
79076;SDS011;68477;42.698;23.342;2023-08-06T09:11:15;5.03;;;2.88;;
79076;SDS011;68477;42.698;23.342;2023-08-06T09:13:42;5.82;;;3.05;;
79076;SDS011;68477;42.698;23.342;2023-08-06T09:16:07;3.83;;;2.80;;
79076;SDS011;68477;42.698;23.342;2023-08-06T09:18:33;4.93;;;3.00;;
79076;SDS011;68477;42.698;23.342;2023-08-06T09:20:58;4.35;;;2.50;;
79076;SDS011;68477;42.698;23.342;2023-08-06T09:23:27;4.57;;;2.65;;
79076;SDS011;68477;42.698;23.342;2023-08-06T09:25:56;4.13;;;2.85;;
79076;SDS011;68477;42.698;23.342;2023-08-06T09:28:22;4.88;;;2.60;;
79076;SDS011;68477;42.698;23.342;2023-08-06T09:30:49;5.95;;;2.72;;
79076;SDS011;68477;42.698;23.342;2023-08-06T09:33:18;3.95;;;2.70;;
79076;SDS011;68477;42.698;23.342;2023-08-06T09:35:45;7.35;;;3.00;;
79076;SDS011;68477;42.698;23.342;2023-08-06T09:38:12;4.15;;;2.58;;
79076;SDS011;68477;42.698;23.342;2023-08-06T09:40:37;3.63;;;2.72;;
79076;SDS011;68477;42.698;23.342;2023-08-06T09:43:04;4.70;;;2.80;;
79076;SDS011;68477;42.698;23.342;2023-08-06T09:45:39;4.50;;;2.90;;
79076;SDS011;68477;42.698;23.342;2023-08-06T09:48:08;3.40;;;2.60;;
79076;SDS011;68477;42.698;23.342;2023-08-06T09:50:35;4.82;;;2.45;;
79076;SDS011;68477;42.698;23.342;2023-08-06T09:53:02;3.50;;;2.60;;
79076;SDS011;68477;42.698;23.342;2023-08-06T09:55:28;3.60;;;2.17;;
79076;SDS011;68477;42.698;23.342;2023-08-06T09:57:54;4.90;;;2.50;;
79076;SDS011;68477;42.698;23.342;2023-08-06T10:00:20;5.32;;;2.60;;
79076;SDS011;68477;42.698;23.342;2023-08-06T10:02:48;5.03;;;2.30;;
79076;SDS011;68477;42.698;23.342;2023-08-06T10:05:16;4.57;;;2.30;;
79076;SDS011;68477;42.698;23.342;2023-08-06T10:07:42;3.15;;;2.10;;
79076;SDS011;68477;42.698;23.342;2023-08-06T10:10:09;3.88;;;2.53;;
79076;SDS011;68477;42.698;23.342;2023-08-06T10:12:46;4.53;;;2.20;;
79076;SDS011;68477;42.698;23.342;2023-08-06T10:15:15;4.07;;;2.30;;
79076;SDS011;68477;42.698;23.342;2023-08-06T10:17:44;4.07;;;2.47;;
79076;SDS011;68477;42.698;23.342;2023-08-06T10:20:12;3.90;;;2.30;;
79076;SDS011;68477;42.698;23.342;2023-08-06T10:22:39;6.07;;;2.22;;
79076;SDS011;68477;42.698;23.342;2023-08-06T10:25:08;4.63;;;2.10;;
79076;SDS011;68477;42.698;23.342;2023-08-06T10:27:40;4.57;;;2.50;;
79076;SDS011;68477;42.698;23.342;2023-08-06T10:33:00;3.90;;;2.60;;
79076;SDS011;68477;42.698;23.342;2023-08-06T10:35:48;3.22;;;2.10;;
79076;SDS011;68477;42.698;23.342;2023-08-06T10:38:18;4.00;;;2.35;;
79076;SDS011;68477;42.698;23.342;2023-08-06T10:40:49;3.63;;;2.75;;
79076;SDS011;68477;42.698;23.342;2023-08-06T10:43:24;4.00;;;2.50;;
79076;SDS011;68477;42.698;23.342;2023-08-06T10:46:01;4.45;;;2.05;;
79076;SDS011;68477;42.698;23.342;2023-08-06T10:48:38;3.42;;;2.42;;
79076;SDS011;68477;42.698;23.342;2023-08-06T10:51:09;6.45;;;2.33;;
79076;SDS011;68477;42.698;23.342;2023-08-06T10:53:41;5.03;;;2.40;;
79076;SDS011;68477;42.698;23.342;2023-08-06T10:56:12;5.22;;;2.60;;
79076;SDS011;68477;42.698;23.342;2023-08-06T10:58:39;4.75;;;2.65;;
79076;SDS011;68477;42.698;23.342;2023-08-06T11:01:04;4.43;;;2.50;;
79076;SDS011;68477;42.698;23.342;2023-08-06T11:03:31;4.18;;;2.67;;
79076;SDS011;68477;42.698;23.342;2023-08-06T11:05:58;5.25;;;2.78;;
79076;SDS011;68477;42.698;23.342;2023-08-06T11:08:24;7.43;;;2.83;;
79076;SDS011;68477;42.698;23.342;2023-08-06T11:10:51;3.47;;;2.70;;
79076;SDS011;68477;42.698;23.342;2023-08-06T11:13:17;7.30;;;3.08;;
79076;SDS011;68477;42.698;23.342;2023-08-06T11:15:43;5.75;;;3.45;;
79076;SDS011;68477;42.698;23.342;2023-08-06T11:18:09;5.38;;;3.47;;
79076;SDS011;68477;42.698;23.342;2023-08-06T11:20:36;4.25;;;3.08;;
79076;SDS011;68477;42.698;23.342;2023-08-06T11:23:01;3.90;;;2.92;;
79076;SDS011;68477;42.698;23.342;2023-08-06T11:25:28;10.60;;;4.07;;
79076;SDS011;68477;42.698;23.342;2023-08-06T11:27:54;6.88;;;4.10;;
79076;SDS011;68477;42.698;23.342;2023-08-06T11:30:19;4.63;;;3.38;;
79076;SDS011;68477;42.698;23.342;2023-08-06T11:32:48;5.03;;;3.53;;
79076;SDS011;68477;42.698;23.342;2023-08-06T11:35:14;8.63;;;3.50;;
79076;SDS011;68477;42.698;23.342;2023-08-06T11:37:43;4.90;;;3.15;;
79076;SDS011;68477;42.698;23.342;2023-08-06T11:40:10;8.63;;;3.25;;
79076;SDS011;68477;42.698;23.342;2023-08-06T11:42:38;5.05;;;3.33;;
79076;SDS011;68477;42.698;23.342;2023-08-06T11:45:04;4.65;;;3.22;;
79076;SDS011;68477;42.698;23.342;2023-08-06T11:47:30;11.23;;;3.10;;
79076;SDS011;68477;42.698;23.342;2023-08-06T11:49:55;7.88;;;3.63;;
79076;SDS011;68477;42.698;23.342;2023-08-06T11:52:24;6.03;;;3.28;;
79076;SDS011;68477;42.698;23.342;2023-08-06T11:55:03;6.03;;;3.45;;
79076;SDS011;68477;42.698;23.342;2023-08-06T11:57:35;4.65;;;2.97;;
79076;SDS011;68477;42.698;23.342;2023-08-06T12:00:02;8.88;;;3.40;;
79076;SDS011;68477;42.698;23.342;2023-08-06T12:02:33;8.02;;;3.72;;
79076;SDS011;68477;42.698;23.342;2023-08-06T12:05:10;5.10;;;3.60;;
79076;SDS011;68477;42.698;23.342;2023-08-06T12:07:46;6.35;;;4.25;;
79076;SDS011;68477;42.698;23.342;2023-08-06T12:10:14;7.32;;;3.85;;
79076;SDS011;68477;42.698;23.342;2023-08-06T12:12:40;5.15;;;3.70;;
79076;SDS011;68477;42.698;23.342;2023-08-06T12:15:06;5.32;;;4.00;;
79076;SDS011;68477;42.698;23.342;2023-08-06T12:17:33;5.55;;;3.67;;
79076;SDS011;68477;42.698;23.342;2023-08-06T12:19:59;4.53;;;4.07;;
79076;SDS011;68477;42.698;23.342;2023-08-06T12:22:25;5.32;;;3.75;;
79076;SDS011;68477;42.698;23.342;2023-08-06T12:24:50;8.45;;;4.53;;
79076;SDS011;68477;42.698;23.342;2023-08-06T12:27:17;6.35;;;3.80;;
79076;SDS011;68477;42.698;23.342;2023-08-06T12:29:49;6.50;;;4.18;;
79076;SDS011;68477;42.698;23.342;2023-08-06T12:32:14;7.20;;;4.38;;
79076;SDS011;68477;42.698;23.342;2023-08-06T12:34:40;5.18;;;4.00;;
79076;SDS011;68477;42.698;23.342;2023-08-06T12:37:08;7.90;;;4.53;;
79076;SDS011;68477;42.698;23.342;2023-08-06T12:39:34;7.13;;;4.55;;
79076;SDS011;68477;42.698;23.342;2023-08-06T12:42:00;6.57;;;4.60;;
79076;SDS011;68477;42.698;23.342;2023-08-06T12:44:27;6.70;;;4.57;;
79076;SDS011;68477;42.698;23.342;2023-08-06T12:46:54;5.88;;;4.50;;
79076;SDS011;68477;42.698;23.342;2023-08-06T12:49:19;5.97;;;4.60;;
79076;SDS011;68477;42.698;23.342;2023-08-06T12:51:48;7.88;;;4.15;;
79076;SDS011;68477;42.698;23.342;2023-08-06T12:54:17;6.45;;;4.28;;
79076;SDS011;68477;42.698;23.342;2023-08-06T12:56:44;10.93;;;4.68;;
79076;SDS011;68477;42.698;23.342;2023-08-06T12:59:10;8.32;;;4.30;;
79076;SDS011;68477;42.698;23.342;2023-08-06T13:01:37;6.70;;;4.32;;
79076;SDS011;68477;42.698;23.342;2023-08-06T13:04:03;6.47;;;4.07;;
79076;SDS011;68477;42.698;23.342;2023-08-06T13:06:28;9.27;;;4.13;;
79076;SDS011;68477;42.698;23.342;2023-08-06T13:08:54;7.57;;;4.40;;
79076;SDS011;68477;42.698;23.342;2023-08-06T13:11:19;7.00;;;4.03;;
79076;SDS011;68477;42.698;23.342;2023-08-06T13:13:45;8.50;;;4.22;;
79076;SDS011;68477;42.698;23.342;2023-08-06T13:16:10;7.70;;;4.10;;
79076;SDS011;68477;42.698;23.342;2023-08-06T13:18:36;5.32;;;4.32;;
79076;SDS011;68477;42.698;23.342;2023-08-06T13:21:01;6.15;;;4.00;;
79076;SDS011;68477;42.698;23.342;2023-08-06T13:23:27;7.22;;;4.13;;
79076;SDS011;68477;42.698;23.342;2023-08-06T13:25:53;8.52;;;4.18;;
79076;SDS011;68477;42.698;23.342;2023-08-06T13:28:18;5.15;;;3.80;;
79076;SDS011;68477;42.698;23.342;2023-08-06T13:30:44;5.78;;;4.07;;
79076;SDS011;68477;42.698;23.342;2023-08-06T13:33:10;6.20;;;4.03;;
79076;SDS011;68477;42.698;23.342;2023-08-06T13:35:36;8.40;;;4.68;;
79076;SDS011;68477;42.698;23.342;2023-08-06T13:38:02;5.75;;;3.88;;
79076;SDS011;68477;42.698;23.342;2023-08-06T13:40:28;5.60;;;4.15;;
79076;SDS011;68477;42.698;23.342;2023-08-06T13:42:55;5.10;;;3.97;;
79076;SDS011;68477;42.698;23.342;2023-08-06T13:45:20;5.25;;;3.80;;
79076;SDS011;68477;42.698;23.342;2023-08-06T13:47:46;6.25;;;3.65;;
79076;SDS011;68477;42.698;23.342;2023-08-06T13:50:12;7.60;;;4.18;;
79076;SDS011;68477;42.698;23.342;2023-08-06T13:52:38;7.40;;;4.20;;
79076;SDS011;68477;42.698;23.342;2023-08-06T13:55:04;5.80;;;4.07;;
79076;SDS011;68477;42.698;23.342;2023-08-06T13:57:30;8.23;;;4.03;;
79076;SDS011;68477;42.698;23.342;2023-08-06T13:59:55;6.28;;;3.67;;
79076;SDS011;68477;42.698;23.342;2023-08-06T14:02:22;5.72;;;3.60;;
79076;SDS011;68477;42.698;23.342;2023-08-06T14:04:47;8.48;;;4.07;;
79076;SDS011;68477;42.698;23.342;2023-08-06T14:07:13;6.28;;;3.53;;
79076;SDS011;68477;42.698;23.342;2023-08-06T14:09:38;7.10;;;3.92;;
79076;SDS011;68477;42.698;23.342;2023-08-06T14:12:05;7.07;;;3.95;;
79076;SDS011;68477;42.698;23.342;2023-08-06T14:14:31;5.65;;;3.72;;
79076;SDS011;68477;42.698;23.342;2023-08-06T14:16:56;6.10;;;4.25;;
79076;SDS011;68477;42.698;23.342;2023-08-06T14:19:22;6.38;;;3.60;;
79076;SDS011;68477;42.698;23.342;2023-08-06T14:21:47;5.10;;;3.63;;
79076;SDS011;68477;42.698;23.342;2023-08-06T14:24:13;6.70;;;3.70;;
79076;SDS011;68477;42.698;23.342;2023-08-06T14:26:38;5.47;;;4.10;;
79076;SDS011;68477;42.698;23.342;2023-08-06T14:29:04;6.63;;;3.50;;
79076;SDS011;68477;42.698;23.342;2023-08-06T14:31:29;8.35;;;4.78;;
79076;SDS011;68477;42.698;23.342;2023-08-06T14:33:55;6.32;;;3.75;;
79076;SDS011;68477;42.698;23.342;2023-08-06T14:36:20;5.20;;;3.25;;
79076;SDS011;68477;42.698;23.342;2023-08-06T14:38:47;4.70;;;3.60;;
79076;SDS011;68477;42.698;23.342;2023-08-06T14:41:12;11.65;;;3.30;;
79076;SDS011;68477;42.698;23.342;2023-08-06T14:43:38;4.90;;;3.53;;
79076;SDS011;68477;42.698;23.342;2023-08-06T14:46:03;4.75;;;3.53;;